Time;durP1;ratioP1;P1;durP2;ratioP2;P2;SDS_P1;SDS_P2;PMS_P1;PMS_P2;Temp;Humidity;BMP_temperature;BMP_pressure;BME280_temperature;BME280_humidity;BME280_pressure;Samples;Min_cycle;Max_cycle;Signal;HPM_P1;HPM_P2
2023/07/16 12:32:29;;;;;;;4.80;3.20;;;;;;;37.45;33.43;101001.16;104963;1276;599479;-72
2023/07/16 12:35:00;;;;;;;7.90;3.10;;;;;;;39.10;31.55;100994.42;106289;1258;61443;-70
2023/07/16 12:37:29;;;;;;;3.90;3.50;;;;;;;39.75;30.50;100990.04;106803;1250;61904;-71
2023/07/16 12:40:00;;;;;;;6.70;3.40;;;;;;;38.30;31.78;100994.92;106724;1249;62281;-71
2023/07/16 12:42:29;;;;;;;4.40;3.30;;;;;;;37.29;33.18;101001.64;106605;1251;72521;-70
2023/07/16 12:44:58;;;;;;;6.10;3.70;;;;;;;37.75;32.88;100997.30;106535;1247;348107;-69
2023/07/16 12:47:27;;;;;;;4.70;3.50;;;;;;;37.81;33.01;100993.92;107003;1257;64728;-70
2023/07/16 12:49:56;;;;;;;6.70;3.50;;;;;;;38.15;32.53;100993.13;106950;1248;59074;-71
2023/07/16 12:52:25;;;;;;;6.20;4.20;;;;;;;38.60;31.72;100984.14;107000;1243;59013;-72
2023/07/16 12:54:54;;;;;;;8.30;3.70;;;;;;;38.19;32.12;100989.90;106999;1243;71491;-69
2023/07/16 12:57:26;;;;;;;7.10;3.70;;;;;;;37.74;32.58;100990.20;107247;1256;62190;-75
2023/07/16 12:59:55;;;;;;;6.10;3.50;;;;;;;37.26;32.93;100992.75;106993;1246;59930;-71
2023/07/16 13:02:24;;;;;;;7.30;3.40;;;;;;;37.66;32.76;100987.61;107017;1245;62901;-73
2023/07/16 13:04:53;;;;;;;5.80;3.60;;;;;;;38.14;32.12;100984.55;107161;1254;61265;-73
2023/07/16 13:07:22;;;;;;;5.50;3.50;;;;;;;38.43;31.69;100982.42;107373;1245;58939;-70
2023/07/16 13:09:51;;;;;;;5.60;3.60;;;;;;;38.85;31.11;100979.90;107149;1245;61983;-72
2023/07/16 13:12:35;;;;;;;5.70;3.80;;;;;;;38.49;31.12;100981.76;107141;1244;71854;-70
2023/07/16 13:15:06;;;;;;;4.20;3.30;;;;;;;37.73;31.85;100981.89;107139;1244;61997;-71
2023/07/16 13:17:36;;;;;;;6.10;3.10;;;;;;;38.23;31.58;100973.90;107439;1254;63881;-70
2023/07/16 13:20:07;;;;;;;4.70;3.80;;;;;;;38.48;31.44;100973.19;107098;1246;57665;-72
2023/07/16 13:22:36;;;;;;;7.40;3.70;;;;;;;38.33;31.78;100972.00;107105;1245;59015;-68
2023/07/16 13:25:06;;;;;;;4.90;3.70;;;;;;;38.38;31.72;100970.25;107051;1245;64008;-69
2023/07/16 13:27:35;;;;;;;6.20;3.90;;;;;;;38.75;31.24;100968.11;106924;1245;61417;-69
2023/07/16 13:30:06;;;;;;;4.80;3.30;;;;;;;39.04;31.02;100963.53;107050;1245;59662;-69
2023/07/16 13:32:34;;;;;;;7.20;3.80;;;;;;;38.46;31.36;100961.04;107077;1256;72993;-69
2023/07/16 13:35:04;;;;;;;4.40;3.60;;;;;;;37.79;32.08;100961.87;107094;1245;59041;-70
2023/07/16 13:37:33;;;;;;;7.30;3.70;;;;;;;37.86;32.15;100957.46;107089;1245;58924;-69
2023/07/16 13:40:03;;;;;;;5.00;3.60;;;;;;;37.93;32.32;100957.19;107201;1244;73316;-70
2023/07/16 13:42:31;;;;;;;5.10;3.20;;;;;;;38.00;32.23;100958.52;107008;1244;72698;-70
2023/07/16 13:45:00;;;;;;;5.50;3.80;;;;;;;38.49;31.70;100957.06;107048;1254;70639;-70
2023/07/16 13:47:29;;;;;;;8.40;3.70;;;;;;;38.54;31.70;100958.11;106916;1254;75416;-70
2023/07/16 13:49:58;;;;;;;8.00;3.70;;;;;;;37.77;32.20;100954.97;106921;1245;58939;-70
2023/07/16 13:52:27;;;;;;;8.90;3.80;;;;;;;37.83;32.04;100952.59;106855;1246;59116;-70
2023/07/16 13:54:56;;;;;;;5.40;3.30;;;;;;;37.08;32.68;100962.01;106998;1245;72632;-71
2023/07/16 13:57:26;;;;;;;5.10;3.70;;;;;;;38.20;31.40;100952.89;106932;1245;72567;-71
2023/07/16 13:59:55;;;;;;;5.40;3.50;;;;;;;38.62;31.24;100950.88;106912;1245;60660;-70
2023/07/16 14:02:25;;;;;;;6.70;4.10;;;;;;;38.38;31.57;100949.77;106917;1248;64845;-71
2023/07/16 14:04:54;;;;;;;6.80;3.30;;;;;;;38.98;30.71;100947.35;106910;1244;57144;-70
2023/07/16 14:07:23;;;;;;;6.10;3.80;;;;;;;39.08;30.42;100942.07;107103;1246;58982;-70
2023/07/16 14:09:52;;;;;;;8.10;3.60;;;;;;;39.59;30.21;100941.92;107223;1248;62258;-71
2023/07/16 14:12:21;;;;;;;4.70;3.80;;;;;;;39.67;30.22;100938.14;107006;1244;62261;-70
2023/07/16 14:14:53;;;;;;;7.20;3.40;;;;;;;40.49;29.19;100941.02;106736;1244;70761;-74
2023/07/16 14:17:22;;;;;;;6.30;4.10;;;;;;;40.00;29.54;100934.76;107083;1243;65474;-68
2023/07/16 14:19:51;;;;;;;7.50;3.40;;;;;;;39.75;29.84;100934.80;106946;1253;61448;-68
2023/07/16 14:22:26;;;;;;;5.20;3.40;;;;;;;39.50;29.97;100931.73;106922;1254;62234;-69
2023/07/16 14:24:55;;;;;;;5.40;3.80;;;;;;;39.09;30.60;100928.77;106938;1243;62625;-69
2023/07/16 14:27:24;;;;;;;5.00;3.40;;;;;;;39.86;30.02;100924.13;106896;1244;70642;-69
2023/07/16 14:29:53;;;;;;;4.70;3.60;;;;;;;40.88;28.90;100917.77;106856;1245;71288;-69
2023/07/16 14:32:34;;;;;;;4.90;3.60;;;;;;;42.72;26.30;100914.34;106820;1248;63005;-68
2023/07/16 14:35:04;;;;;;;5.10;3.60;;;;;;;42.54;26.34;100912.30;106810;1244;59545;-69
2023/07/16 14:37:38;;;;;;;4.90;3.40;;;;;;;41.42;27.60;100912.44;106866;1254;58992;-69
2023/07/16 14:40:08;;;;;;;5.60;3.10;;;;;;;41.11;28.37;100906.41;106853;1248;61709;-69
2023/07/16 14:42:37;;;;;;;5.60;3.70;;;;;;;41.62;27.87;100899.99;106946;1246;60815;-69
2023/07/16 14:45:07;;;;;;;6.70;3.30;;;;;;;41.36;27.68;100902.45;106878;1254;59788;-69
2023/07/16 14:47:36;;;;;;;6.40;3.60;;;;;;;41.70;27.10;100898.02;106905;1256;65056;-70
2023/07/16 14:50:06;;;;;;;4.00;3.30;;;;;;;41.50;27.32;100897.91;106916;1245;61185;-69
2023/07/16 14:52:36;;;;;;;4.90;3.30;;;;;;;41.37;27.34;100898.92;106915;1252;58959;-69
2023/07/16 14:55:06;;;;;;;6.40;3.70;;;;;;;40.86;28.25;100902.17;106915;1256;63709;-71
2023/07/16 14:57:35;;;;;;;5.00;3.20;;;;;;;40.97;28.05;100904.01;106990;1253;61656;-71
2023/07/16 15:00:07;;;;;;;5.30;3.80;;;;;;;41.19;27.93;100894.92;106875;1245;61388;-71
2023/07/16 15:02:36;;;;;;;5.10;3.60;;;;;;;40.56;28.47;100893.72;107294;1256;72898;-69
2023/07/16 15:05:07;;;;;;;5.40;3.20;;;;;;;40.72;28.33;100894.61;106945;1250;61746;-70
2023/07/16 15:07:37;;;;;;;4.60;3.80;;;;;;;39.36;29.75;100896.78;106767;1244;58920;-70
2023/07/16 15:10:07;;;;;;;6.50;3.60;;;;;;;38.85;30.34;100894.85;108061;1245;62556;-69
2023/07/16 15:12:36;;;;;;;5.30;3.80;;;;;;;39.51;29.53;100892.20;106843;1247;61968;-69
2023/07/16 15:15:10;;;;;;;5.60;3.30;;;;;;;38.35;30.37;100890.16;106808;1247;60473;-69
2023/07/16 15:17:39;;;;;;;4.60;3.50;;;;;;;38.13;30.74;100896.14;106929;1252;62334;-69
2023/07/16 15:20:10;;;;;;;5.80;3.50;;;;;;;38.68;30.18;100888.74;106908;1252;60780;-69
2023/07/16 15:22:39;;;;;;;5.50;3.50;;;;;;;39.49;29.73;100889.52;106966;1248;57735;-69
2023/07/16 15:25:09;;;;;;;5.80;3.50;;;;;;;40.25;28.63;100892.42;106808;1256;61586;-68
2023/07/16 15:27:37;;;;;;;4.30;3.10;;;;;;;40.39;28.34;100893.23;106862;1255;62702;-68
2023/07/16 15:30:08;;;;;;;5.30;3.10;;;;;;;40.49;28.03;100893.30;106890;1254;61058;-68
2023/07/16 15:32:37;;;;;;;5.90;3.70;;;;;;;40.61;28.23;100892.05;106923;1256;64442;-68
2023/07/16 15:35:06;;;;;;;7.20;3.60;;;;;;;40.98;28.16;100893.67;106971;1245;59092;-68
2023/07/16 15:37:35;;;;;;;7.10;3.90;;;;;;;40.99;27.86;100893.86;106920;1249;60998;-70
2023/07/16 15:40:22;;;;;;;7.70;4.10;;;;;;;40.86;27.68;100897.08;106907;1257;63629;-69
2023/07/16 15:42:52;;;;;;;6.10;4.40;;;;;;;40.79;27.34;100901.40;106949;1249;73074;-68
2023/07/16 15:45:22;;;;;;;5.30;3.50;;;;;;;40.75;27.84;100895.13;106921;1244;70497;-69
2023/07/16 15:47:56;;;;;;;7.50;4.20;;;;;;;40.34;28.30;100900.32;106930;1244;65922;-73
2023/07/16 15:50:27;;;;;;;4.90;3.70;;;;;;;39.96;28.57;100904.92;107092;1245;57595;-72
2023/07/16 15:52:56;;;;;;;7.40;3.60;;;;;;;40.52;28.46;100902.17;107098;1247;61423;-69
2023/07/16 15:55:26;;;;;;;5.10;3.60;;;;;;;41.20;27.66;100898.96;107061;1248;72724;-72
2023/07/16 15:57:54;;;;;;;9.60;4.70;;;;;;;41.37;27.62;100898.70;107218;1254;72559;-69
2023/07/16 16:00:26;;;;;;;6.60;3.70;;;;;;;40.76;28.35;100901.73;107172;1245;70863;-69
2023/07/16 16:02:55;;;;;;;6.70;4.00;;;;;;;40.98;28.04;100902.99;107104;1248;63953;-72
2023/07/16 16:05:24;;;;;;;8.50;4.00;;;;;;;40.72;28.45;100902.36;107105;1255;58338;-71
2023/07/16 16:08:19;;;;;;;6.60;4.10;;;;;;;40.75;28.40;100903.96;107104;1246;57535;-70
2023/07/16 16:10:52;;;;;;;5.20;3.90;;;;;;;40.75;28.31;100905.21;107122;1244;72757;-69
2023/07/16 16:13:23;;;;;;;8.90;3.30;;;;;;;40.95;27.95;100900.37;107014;1245;63169;-69
2023/07/16 16:15:52;;;;;;;8.00;4.10;;;;;;;41.40;27.42;100898.91;107071;1244;60041;-74
2023/07/16 16:18:23;;;;;;;6.60;4.00;;;;;;;40.87;28.15;100900.21;107434;1247;62460;-70
2023/07/16 16:20:53;;;;;;;5.00;3.50;;;;;;;40.64;28.54;100898.39;107070;1248;58427;-70
2023/07/16 16:23:23;;;;;;;6.00;4.10;;;;;;;41.10;28.11;100897.23;107135;1247;60906;-67
2023/07/16 16:25:51;;;;;;;6.90;4.10;;;;;;;40.85;28.48;100899.37;107291;1246;72137;-69
2023/07/16 16:28:22;;;;;;;8.60;4.30;;;;;;;41.06;27.98;100897.35;107082;1244;71958;-71
2023/07/16 16:30:51;;;;;;;9.20;4.20;;;;;;;41.01;28.09;100897.46;107193;1245;61273;-70
2023/07/16 16:33:19;;;;;;;10.80;4.30;;;;;;;40.61;28.88;100893.85;107102;1244;75056;-68
2023/07/16 16:35:48;;;;;;;6.80;4.10;;;;;;;40.69;28.86;100902.33;107188;1245;61445;-68
2023/07/16 16:38:17;;;;;;;6.00;4.10;;;;;;;40.03;29.57;100900.68;107129;1245;61262;-68
2023/07/16 16:40:46;;;;;;;11.20;4.10;;;;;;;40.05;29.41;100900.05;107030;1257;63933;-69
2023/07/16 16:43:16;;;;;;;6.30;4.30;;;;;;;39.78;29.79;100904.91;107106;1245;71285;-69
2023/07/16 16:45:45;;;;;;;7.30;4.40;;;;;;;39.72;30.08;100903.22;107110;1245;70858;-68
2023/07/16 16:48:14;;;;;;;10.90;5.00;;;;;;;39.45;30.58;100905.99;107062;1244;74116;-70
2023/07/16 16:50:43;;;;;;;7.30;3.90;;;;;;;39.22;30.80;100903.56;107092;1248;61484;-68
2023/07/16 16:53:13;;;;;;;7.30;4.20;;;;;;;39.15;30.99;100907.71;107246;1245;59026;-67
2023/07/16 16:55:43;;;;;;;6.30;3.80;;;;;;;39.23;30.93;100906.61;106934;1251;64332;-71
2023/07/16 16:58:13;;;;;;;9.00;4.10;;;;;;;38.88;31.54;100908.77;107091;1248;62406;-68
2023/07/16 17:00:42;;;;;;;8.10;4.10;;;;;;;38.66;31.89;100908.67;107112;1245;60391;-68
2023/07/16 17:03:14;;;;;;;6.30;4.20;;;;;;;38.39;32.23;100906.45;107144;1245;63706;-72
2023/07/16 17:05:43;;;;;;;8.70;4.30;;;;;;;38.03;32.86;100909.69;107118;1255;59146;-69
2023/07/16 17:08:12;;;;;;;8.60;5.50;;;;;;;37.67;33.40;100914.95;107135;1245;59156;-69
2023/07/16 17:10:41;;;;;;;6.10;4.10;;;;;;;37.56;33.58;100915.43;107141;1246;63966;-69
2023/07/16 17:13:10;;;;;;;9.50;4.50;;;;;;;37.35;34.03;100913.95;107144;1254;62078;-69
2023/07/16 17:15:46;;;;;;;7.90;5.10;;;;;;;37.22;34.54;100914.64;107144;1245;60115;-68
2023/07/16 17:18:16;;;;;;;7.70;4.80;;;;;;;37.04;34.88;100915.32;107177;1245;65540;-68
2023/07/16 17:20:45;;;;;;;12.10;4.80;;;;;;;36.92;35.52;100919.13;107037;1245;60817;-76
2023/07/16 17:23:14;;;;;;;7.20;4.70;;;;;;;36.50;36.12;100918.45;107253;1248;58991;-68
2023/07/16 17:25:42;;;;;;;8.80;5.00;;;;;;;36.26;36.64;100918.71;107071;1251;73178;-69
2023/07/16 17:28:11;;;;;;;8.60;5.20;;;;;;;36.08;37.18;100917.95;107290;1244;71398;-69
2023/07/16 17:30:40;;;;;;;6.60;4.80;;;;;;;35.51;38.51;100920.85;107176;1251;60796;-69
2023/07/16 17:33:11;;;;;;;10.10;4.70;;;;;;;34.78;40.21;100923.08;107185;1245;63270;-69
2023/07/16 17:35:40;;;;;;;7.00;4.60;;;;;;;34.11;41.76;100921.17;107126;1245;60970;-68
2023/07/16 17:38:09;;;;;;;10.10;4.80;;;;;;;33.59;43.12;100925.36;107141;1245;61382;-69
2023/07/16 17:40:38;;;;;;;9.40;4.80;;;;;;;33.19;44.05;100929.95;107168;1251;65019;-68
2023/07/16 17:43:07;;;;;;;7.00;4.80;;;;;;;32.78;45.22;100926.08;107190;1245;71163;-68
2023/07/16 17:45:36;;;;;;;6.50;5.00;;;;;;;32.41;46.58;100929.61;107006;1248;70430;-68
2023/07/16 17:48:06;;;;;;;9.80;5.70;;;;;;;32.17;47.38;100934.79;107040;1248;64999;-68
2023/07/16 17:50:35;;;;;;;11.80;6.40;;;;;;;31.88;48.25;100937.25;107097;1245;58967;-69
2023/07/16 17:53:04;;;;;;;9.30;5.50;;;;;;;31.61;48.99;100944.35;106995;1248;61334;-67
2023/07/16 17:55:33;;;;;;;9.80;5.10;;;;;;;31.39;49.50;100948.30;107167;1243;72986;-68
2023/07/16 17:58:01;;;;;;;7.90;5.00;;;;;;;31.24;50.25;100944.61;107077;1244;73027;-71
2023/07/16 18:00:31;;;;;;;10.50;5.50;;;;;;;30.96;51.27;100952.60;107386;1248;70422;-70
2023/07/16 18:03:00;;;;;;;10.70;5.50;;;;;;;30.77;51.96;100953.82;106908;1244;64787;-69
2023/07/16 18:05:29;;;;;;;8.90;5.50;;;;;;;30.61;52.78;100960.98;107156;1245;59106;-73
2023/07/16 18:07:58;;;;;;;10.00;5.20;;;;;;;30.38;53.47;100962.02;107111;1245;61045;-69
2023/07/16 18:10:29;;;;;;;13.30;5.70;;;;;;;30.25;54.16;100963.79;107075;1244;73772;-68
2023/07/16 18:12:58;;;;;;;9.40;5.80;;;;;;;30.16;54.68;100966.69;107038;1244;72028;-70
2023/07/16 18:15:27;;;;;;;8.90;5.40;;;;;;;30.03;54.90;100970.40;107021;1243;71112;-69
2023/07/16 18:17:55;;;;;;;10.60;6.60;;;;;;;29.90;55.56;100971.86;107107;1245;74005;-70
2023/07/16 18:20:26;;;;;;;18.10;5.70;;;;;;;29.77;55.63;100971.56;107120;1245;58780;-69
2023/07/16 18:22:55;;;;;;;9.60;6.10;;;;;;;29.63;56.13;100975.47;107030;1245;59102;-71
2023/07/16 18:25:24;;;;;;;8.00;5.40;;;;;;;29.51;56.94;100980.18;107140;1248;62355;-69
2023/07/16 18:27:54;;;;;;;7.70;5.40;;;;;;;29.40;56.65;100986.42;107108;1245;61177;-71
2023/07/16 18:30:23;;;;;;;7.80;5.40;;;;;;;29.32;56.94;100989.84;106976;1248;60918;-71
2023/07/16 18:32:52;;;;;;;9.50;5.50;;;;;;;29.20;57.78;100989.00;107148;1248;73585;-71
2023/07/16 18:35:22;;;;;;;9.00;5.50;;;;;;;29.12;57.66;100993.91;106975;1245;60705;-71
2023/07/16 18:37:51;;;;;;;7.50;5.80;;;;;;;29.01;57.55;100993.84;107021;1245;60993;-74
2023/07/16 18:40:20;;;;;;;8.60;5.50;;;;;;;28.90;57.89;100995.02;107139;1244;74178;-69
2023/07/16 18:42:48;;;;;;;12.40;5.90;;;;;;;28.84;58.28;100996.80;106934;1254;72435;-71
2023/07/16 18:45:18;;;;;;;9.90;5.30;;;;;;;28.74;57.96;100998.89;107049;1244;72566;-71
2023/07/16 18:47:47;;;;;;;12.10;5.40;;;;;;;28.67;57.88;101001.67;107038;1245;74070;-69
2023/07/16 18:50:16;;;;;;;7.90;5.40;;;;;;;28.60;58.68;101007.10;107055;1245;61017;-69
2023/07/16 18:52:45;;;;;;;9.50;5.20;;;;;;;28.53;58.58;101009.10;107018;1244;61692;-70
2023/07/16 18:55:15;;;;;;;8.30;5.40;;;;;;;28.45;58.83;101010.63;107088;1244;62782;-70
2023/07/16 18:57:44;;;;;;;8.40;5.10;;;;;;;28.38;59.32;101010.96;107060;1245;72193;-70
2023/07/16 19:00:16;;;;;;;9.60;5.40;;;;;;;28.34;59.42;101016.64;107157;1244;70736;-70
2023/07/16 19:02:44;;;;;;;12.00;5.50;;;;;;;28.26;59.92;101015.77;107087;1252;65457;-71
2023/07/16 19:05:14;;;;;;;8.90;5.50;;;;;;;28.19;60.39;101014.17;107122;1253;58895;-73
2023/07/16 19:07:46;;;;;;;7.30;5.50;;;;;;;28.14;60.73;101010.59;107070;1247;59056;-70
2023/07/16 19:10:15;;;;;;;8.80;5.50;;;;;;;28.07;61.07;101012.72;107089;1244;72752;-70
2023/07/16 19:12:44;;;;;;;9.60;5.30;;;;;;;28.01;61.65;101009.53;107042;1248;72385;-70
2023/07/16 19:15:13;;;;;;;9.40;5.20;;;;;;;27.93;61.52;101010.55;107131;1252;70666;-69
2023/07/16 19:17:42;;;;;;;10.90;6.30;;;;;;;27.78;61.84;101003.63;107140;1245;74131;-70
2023/07/16 19:20:12;;;;;;;9.10;5.40;;;;;;;27.71;62.22;101008.21;107206;1245;62108;-73
2023/07/16 19:22:41;;;;;;;12.00;7.10;;;;;;;27.63;62.41;101008.73;107005;1249;59388;-71
2023/07/16 19:25:13;;;;;;;6.30;5.10;;;;;;;27.50;63.17;101007.86;107064;1245;74020;-70
2023/07/16 19:27:43;;;;;;;9.20;5.50;;;;;;;27.41;63.10;101010.39;107104;1244;73064;-69
2023/07/16 19:30:12;;;;;;;9.30;5.30;;;;;;;27.38;63.64;101013.13;107042;1244;68626;-69
2023/07/16 19:32:41;;;;;;;8.20;5.00;;;;;;;27.35;63.70;101017.15;107101;1257;64106;-70
2023/07/16 19:35:11;;;;;;;9.60;5.40;;;;;;;27.29;63.99;101013.05;107030;1248;59004;-70
2023/07/16 19:37:40;;;;;;;9.90;6.10;;;;;;;27.22;64.37;101013.58;107183;1244;58936;-69
2023/07/16 19:40:11;;;;;;;10.10;6.00;;;;;;;27.15;64.84;101016.13;107081;1254;62211;-70
2023/07/16 19:42:40;;;;;;;10.40;5.80;;;;;;;27.09;64.88;101013.50;107133;1244;72215;-70
2023/07/16 19:45:10;;;;;;;12.60;5.80;;;;;;;27.04;64.64;101014.17;107007;1255;70666;-70
2023/07/16 19:47:40;;;;;;;9.50;5.40;;;;;;;27.00;65.02;101013.95;107064;1243;62983;-70
2023/07/16 19:50:10;;;;;;;9.10;6.30;;;;;;;26.95;65.19;101012.42;107055;1245;61193;-69
2023/07/16 19:52:39;;;;;;;7.20;5.50;;;;;;;26.88;65.72;101011.36;107148;1255;62003;-70
2023/07/16 19:55:08;;;;;;;8.90;5.60;;;;;;;26.86;65.40;101012.45;107051;1244;74487;-70
2023/07/16 19:57:37;;;;;;;9.10;5.70;;;;;;;26.81;64.48;101013.60;107099;1244;71730;-70
2023/07/16 20:00:11;;;;;;;6.60;5.10;;;;;;;26.75;64.86;101013.05;107004;1245;70659;-70
2023/07/16 20:02:43;;;;;;;10.90;5.70;;;;;;;26.70;65.49;101013.06;106967;1255;62853;-68
2023/07/16 20:05:12;;;;;;;9.70;5.60;;;;;;;26.67;65.68;101013.23;106958;1247;59004;-71
2023/07/16 20:07:42;;;;;;;9.30;5.40;;;;;;;26.63;65.43;101012.73;107448;1248;57560;-69
2023/07/16 20:10:11;;;;;;;8.70;5.70;;;;;;;26.57;65.59;101012.27;106939;1244;63903;-69
2023/07/16 20:12:45;;;;;;;10.00;5.70;;;;;;;26.54;66.11;101015.42;107042;1245;61389;-68
2023/07/16 20:15:14;;;;;;;11.00;7.10;;;;;;;26.47;65.72;101013.85;107076;1245;59833;-69
2023/07/16 20:17:43;;;;;;;11.00;5.40;;;;;;;26.41;65.45;101015.19;107112;1245;62333;-69
2023/07/16 20:20:14;;;;;;;9.00;5.40;;;;;;;26.35;65.64;101018.85;107114;1245;59151;-71
2023/07/16 20:22:44;;;;;;;8.20;5.50;;;;;;;26.33;65.77;101019.46;107031;1244;58998;-69
2023/07/16 20:25:13;;;;;;;9.20;5.70;;;;;;;26.30;65.58;101019.83;107080;1254;63254;-69
2023/07/16 20:27:52;;;;;;;8.80;5.50;;;;;;;26.27;66.23;101020.95;107071;1247;60854;-69
2023/07/16 20:30:25;;;;;;;9.30;5.90;;;;;;;26.23;65.60;101019.67;107075;1245;69618;-71
2023/07/16 20:32:59;;;;;;;7.80;5.40;;;;;;;26.20;66.16;101019.96;107033;1247;65164;-70
2023/07/16 20:35:28;;;;;;;7.40;5.10;;;;;;;26.15;65.57;101018.80;106999;1245;60348;-70
2023/07/16 20:37:57;;;;;;;10.00;5.70;;;;;;;26.11;65.53;101020.17;107065;1245;59007;-71
2023/07/16 20:40:33;;;;;;;9.60;6.50;;;;;;;26.08;65.57;101017.45;107128;1245;63093;-72
2023/07/16 20:43:03;;;;;;;8.40;5.50;;;;;;;26.04;66.23;101014.61;107062;1244;60836;-72
2023/07/16 20:45:34;;;;;;;9.60;5.70;;;;;;;26.01;66.32;101016.20;107077;1244;70815;-71
2023/07/16 20:48:04;;;;;;;8.10;5.40;;;;;;;26.00;67.19;101018.40;107229;1254;63351;-71
2023/07/16 20:50:33;;;;;;;10.10;5.80;;;;;;;25.97;66.63;101015.92;107174;1248;58731;-70
2023/07/16 20:53:04;;;;;;;11.40;5.60;;;;;;;25.92;67.23;101017.23;107248;1244;60212;-71
2023/07/16 20:55:33;;;;;;;11.10;7.40;;;;;;;25.89;67.17;101017.27;107471;1245;63770;-72
2023/07/16 20:58:03;;;;;;;9.50;5.50;;;;;;;25.87;67.37;101013.67;107296;1255;61441;-72
2023/07/16 21:00:31;;;;;;;9.40;5.70;;;;;;;25.83;67.94;101014.77;107302;1244;61670;-71
2023/07/16 21:03:06;;;;;;;8.40;5.40;;;;;;;25.79;67.36;101009.75;107292;1244;64991;-72
2023/07/16 21:05:35;;;;;;;7.40;5.10;;;;;;;25.73;67.20;101010.21;107356;1244;58918;-72
2023/07/16 21:08:04;;;;;;;8.80;5.20;;;;;;;25.63;67.71;101012.83;107201;1246;57404;-71
2023/07/16 21:10:33;;;;;;;10.20;5.60;;;;;;;25.58;67.71;101015.70;107270;1245;63407;-71
2023/07/16 21:13:04;;;;;;;8.90;5.40;;;;;;;25.54;67.80;101011.73;107239;1245;61185;-69
2023/07/16 21:15:33;;;;;;;13.80;5.80;;;;;;;25.55;67.82;101012.34;107059;1248;60077;-69
2023/07/16 21:18:03;;;;;;;9.10;5.50;;;;;;;25.52;67.43;101009.34;107192;1245;63067;-69
2023/07/16 21:20:37;;;;;;;12.40;5.00;;;;;;;25.46;67.75;101009.97;107116;1252;59618;-69
2023/07/16 21:23:07;;;;;;;9.10;5.40;;;;;;;25.41;68.36;101011.33;107180;1245;59020;-70
2023/07/16 21:25:36;;;;;;;10.90;5.50;;;;;;;25.49;67.99;101008.13;107068;1256;72878;-69
2023/07/16 21:28:08;;;;;;;11.80;5.90;;;;;;;25.58;67.85;101012.52;107224;1245;71507;-70
2023/07/16 21:30:37;;;;;;;9.20;5.20;;;;;;;25.55;67.92;101011.94;107125;1251;71089;-69
2023/07/16 21:33:08;;;;;;;7.20;5.60;;;;;;;25.56;67.90;101018.98;107037;1248;73287;-71
2023/07/16 21:35:36;;;;;;;8.30;5.20;;;;;;;25.56;67.99;101018.23;107095;1245;61560;-71
2023/07/16 21:38:05;;;;;;;9.50;5.10;;;;;;;25.51;68.69;101014.11;107150;1254;60946;-72
2023/07/16 21:40:34;;;;;;;8.10;5.60;;;;;;;25.56;68.50;101016.67;107036;1246;64926;-74
2023/07/16 21:43:03;;;;;;;11.40;5.70;;;;;;;25.49;68.51;101015.95;107191;1244;72474;-76
2023/07/16 21:45:32;;;;;;;6.60;5.00;;;;;;;25.44;68.77;101011.78;107100;1248;60397;-72
2023/07/16 21:48:01;;;;;;;8.70;4.90;;;;;;;25.38;68.87;101016.00;106847;1248;73184;-70
2023/07/16 21:50:30;;;;;;;9.60;5.70;;;;;;;25.36;69.18;101013.61;106906;1248;61537;-70
2023/07/16 21:53:00;;;;;;;9.50;5.70;;;;;;;25.34;69.60;101017.55;107083;1248;60202;-70
2023/07/16 21:55:29;;;;;;;9.40;5.90;;;;;;;25.24;70.09;101012.66;107088;1243;73320;-70
2023/07/16 21:57:58;;;;;;;11.10;5.10;;;;;;;25.22;70.41;101026.72;106994;1244;72326;-71
2023/07/16 22:00:27;;;;;;;13.70;5.00;;;;;;;25.12;70.83;101030.33;107195;1255;70282;-69
2023/07/16 22:02:56;;;;;;;10.90;5.90;;;;;;;25.09;71.22;101030.61;107245;1244;73387;-73
2023/07/16 22:05:26;;;;;;;8.40;5.20;;;;;;;25.01;71.48;101030.02;107239;1243;61803;-73
2023/07/16 22:07:55;;;;;;;11.00;5.70;;;;;;;24.93;72.77;101030.61;107240;1246;57453;-70
2023/07/16 22:10:24;;;;;;;10.80;5.40;;;;;;;24.85;72.81;101031.76;107076;1255;63605;-69
2023/07/16 22:12:53;;;;;;;8.60;5.70;;;;;;;24.77;73.33;101029.17;106862;1247;72629;-70
2023/07/16 22:15:23;;;;;;;9.90;5.90;;;;;;;24.72;74.00;101032.50;106944;1244;70787;-70
2023/07/16 22:17:53;;;;;;;9.00;5.30;;;;;;;24.69;74.16;101028.45;107037;1245;62772;-70
2023/07/16 22:20:25;;;;;;;10.70;7.50;;;;;;;24.65;75.04;101029.41;107070;1245;58710;-71
2023/07/16 22:22:57;;;;;;;14.40;5.40;;;;;;;24.61;74.74;101028.61;107051;1245;59004;-70
2023/07/16 22:25:26;;;;;;;7.60;5.50;;;;;;;24.55;75.32;101033.63;107064;1246;73782;-70
2023/07/16 22:27:56;;;;;;;10.10;5.30;;;;;;;24.48;75.69;101037.27;107068;1245;72088;-68
2023/07/16 22:30:25;;;;;;;6.70;5.60;;;;;;;24.41;76.21;101037.29;107031;1245;69224;-68
2023/07/16 22:32:54;;;;;;;9.10;5.60;;;;;;;24.36;76.48;101036.89;107030;1251;71884;-68
2023/07/16 22:35:23;;;;;;;7.70;5.40;;;;;;;24.30;77.06;101034.06;107068;1244;58984;-68
2023/07/16 22:37:52;;;;;;;10.40;6.60;;;;;;;24.24;78.15;101034.21;106883;1247;59096;-71
2023/07/16 22:40:21;;;;;;;13.20;5.70;;;;;;;24.16;78.87;101034.60;107089;1256;62436;-72
2023/07/16 22:42:50;;;;;;;12.30;5.50;;;;;;;24.13;79.25;101035.72;107046;1245;61207;-78
2023/07/16 22:45:19;;;;;;;10.00;5.60;;;;;;;24.08;79.56;101037.94;107280;1245;59638;-71
2023/07/16 22:47:48;;;;;;;11.30;5.70;;;;;;;24.00;80.19;101033.55;107030;1245;73030;-72
2023/07/16 22:50:17;;;;;;;8.70;5.70;;;;;;;23.98;80.07;101033.32;106960;1245;60118;-71
2023/07/16 22:52:46;;;;;;;8.20;5.80;;;;;;;23.94;80.32;101032.05;107130;1251;60364;-70
2023/07/16 22:55:15;;;;;;;10.40;6.30;;;;;;;23.91;80.69;101029.77;107022;1255;63138;-70
2023/07/16 22:57:44;;;;;;;9.60;6.00;;;;;;;23.88;81.41;101032.98;107037;1245;61087;-70
2023/07/16 23:00:15;;;;;;;9.20;5.80;;;;;;;23.81;82.55;101033.45;107020;1245;60143;-69
2023/07/16 23:02:45;;;;;;;9.50;5.50;;;;;;;23.75;83.42;101035.97;107034;1244;73654;-69
2023/07/16 23:05:14;;;;;;;9.10;6.20;;;;;;;23.65;85.00;101037.39;107069;1245;60836;-70
2023/07/16 23:07:44;;;;;;;11.40;5.60;;;;;;;23.61;85.03;101034.98;107079;1245;58760;-70
2023/07/16 23:10:13;;;;;;;9.60;6.30;;;;;;;23.54;86.08;101034.97;107096;1244;73514;-70
2023/07/16 23:12:44;;;;;;;9.70;6.40;;;;;;;23.44;86.96;101034.86;107118;1252;61786;-70
2023/07/16 23:15:15;;;;;;;9.20;5.90;;;;;;;23.29;88.21;101034.10;107164;1244;69590;-71
2023/07/16 23:17:44;;;;;;;8.00;6.10;;;;;;;23.18;89.24;101031.05;107080;1245;74311;-72
2023/07/16 23:20:13;;;;;;;8.50;5.90;;;;;;;23.06;90.67;101034.45;107118;1255;58808;-70
2023/07/16 23:22:42;;;;;;;7.20;5.50;;;;;;;22.95;90.38;101033.02;107124;1244;57555;-80
2023/07/16 23:25:11;;;;;;;10.70;6.00;;;;;;;22.82;89.28;101029.11;107368;1256;62855;-73
2023/07/16 23:27:40;;;;;;;8.90;6.20;;;;;;;22.64;90.63;101030.42;107286;1244;71742;-73
2023/07/16 23:30:10;;;;;;;8.30;6.40;;;;;;;22.45;93.76;101027.30;107461;1244;70441;-69
2023/07/16 23:32:39;;;;;;;8.20;5.70;;;;;;;22.25;96.97;101026.12;107293;1243;73739;-73
2023/07/16 23:35:08;;;;;;;7.40;6.30;;;;;;;22.07;99.06;101026.95;107225;1245;59058;-71
2023/07/16 23:37:37;;;;;;;7.40;6.00;;;;;;;21.94;100.00;101028.64;107110;1248;58820;-69
2023/07/16 23:40:08;;;;;;;10.00;6.30;;;;;;;21.84;100.00;101028.70;107160;1245;63276;-70
2023/07/16 23:42:36;;;;;;;9.20;6.40;;;;;;;21.79;100.00;101027.21;107179;1245;71890;-70
2023/07/16 23:45:07;;;;;;;8.80;6.10;;;;;;;21.75;100.00;101030.89;107211;1251;61760;-70
2023/07/16 23:47:36;;;;;;;12.00;6.30;;;;;;;21.65;100.00;101029.08;107198;1244;74349;-71
2023/07/16 23:50:06;;;;;;;8.90;6.00;;;;;;;21.58;100.00;101031.33;107260;1245;61919;-71
2023/07/16 23:52:35;;;;;;;11.40;6.50;;;;;;;21.52;100.00;101030.80;107244;1245;58736;-71
2023/07/16 23:55:06;;;;;;;8.60;6.20;;;;;;;21.48;100.00;101033.44;107292;1256;62449;-71
2023/07/16 23:57:35;;;;;;;9.90;6.50;;;;;;;21.46;100.00;101038.11;107251;1245;71344;-70
